Time;durP1;ratioP1;P1;durP2;ratioP2;P2;SDS_P1;SDS_P2;PMS_P1;PMS_P2;Temp;Humidity;BMP_temperature;BMP_pressure;BME280_temperature;BME280_humidity;BME280_pressure;Samples;Min_cycle;Max_cycle;Signal;HPM_P1;HPM_P2
2021/10/11 00:01:48;;;;;;;39.43;29.23;;;10.30;99.90;;;;;;5020014;28;20293;-66
2021/10/11 00:04:14;;;;;;;35.57;28.20;;;10.30;99.90;;;;;;5019923;28;20758;-67
2021/10/11 00:06:40;;;;;;;34.20;27.07;;;10.30;99.90;;;;;;5019039;28;20189;-67
2021/10/11 00:09:06;;;;;;;35.47;28.80;;;10.30;99.90;;;;;;5017510;28;20228;-66
2021/10/11 00:11:31;;;;;;;35.03;27.97;;;10.40;99.90;;;;;;5019958;28;20668;-67
2021/10/11 00:13:57;;;;;;;36.90;28.30;;;10.40;99.90;;;;;;5018889;28;20228;-66
2021/10/11 00:16:22;;;;;;;35.17;27.97;;;10.40;99.90;;;;;;5020212;28;20189;-66
2021/10/11 00:18:48;;;;;;;37.27;30.13;;;10.40;99.90;;;;;;5019703;28;20556;-67
2021/10/11 00:21:15;;;;;;;38.00;29.10;;;10.50;99.90;;;;;;5018881;28;20213;-66
2021/10/11 00:23:44;;;;;;;35.87;27.10;;;10.50;99.90;;;;;;5018722;28;20225;-66
2021/10/11 00:26:11;;;;;;;38.53;28.90;;;10.60;99.90;;;;;;5019452;28;20619;-68
2021/10/11 00:28:37;;;;;;;40.90;27.27;;;10.60;99.90;;;;;;5019967;28;20658;-65
2021/10/11 00:31:03;;;;;;;36.50;29.37;;;10.60;99.90;;;;;;5024569;28;21280;-66
2021/10/11 00:33:29;;;;;;;37.17;29.57;;;10.70;99.90;;;;;;5018814;28;20225;-66
2021/10/11 00:35:57;;;;;;;35.00;28.70;;;10.70;99.90;;;;;;5018785;28;20240;-66
2021/10/11 00:38:23;;;;;;;33.37;27.57;;;10.70;99.90;;;;;;5019617;28;20731;-67
2021/10/11 00:40:51;;;;;;;33.53;25.90;;;10.70;99.90;;;;;;5019119;28;20674;-66
2021/10/11 00:43:18;;;;;;;35.03;27.60;;;10.80;99.90;;;;;;5018795;28;20692;-67
2021/10/11 00:45:44;;;;;;;38.73;30.33;;;10.80;99.90;;;;;;5017721;28;20607;-66
2021/10/11 00:48:14;;;;;;;35.20;28.30;;;10.80;99.90;;;;;;5019116;28;20615;-66
2021/10/11 00:50:40;;;;;;;34.33;27.77;;;10.80;99.90;;;;;;5020012;28;20216;-66
2021/10/11 00:53:05;;;;;;;38.50;30.10;;;10.80;99.90;;;;;;5016781;28;20987;-65
2021/10/11 00:55:31;;;;;;;35.50;28.50;;;10.90;99.90;;;;;;5018143;28;20177;-66
2021/10/11 00:57:57;;;;;;;40.40;30.50;;;10.90;99.90;;;;;;5018728;28;20260;-66
2021/10/11 01:00:22;;;;;;;34.87;28.27;;;10.90;99.90;;;;;;5018687;28;20204;-67
2021/10/11 01:02:48;;;;;;;39.63;30.43;;;10.90;99.90;;;;;;5017564;28;20212;-68
2021/10/11 01:05:18;;;;;;;41.23;32.50;;;11.00;99.90;;;;;;5017467;28;20247;-67
2021/10/11 01:07:47;;;;;;;43.30;31.83;;;11.00;99.90;;;;;;5018193;28;20440;-67
2021/10/11 01:10:15;;;;;;;43.67;33.47;;;11.00;99.90;;;;;;5014223;28;20620;-66
2021/10/11 01:12:41;;;;;;;42.13;31.70;;;11.10;99.90;;;;;;5017249;28;20687;-65
2021/10/11 01:15:14;;;;;;;45.00;34.97;;;11.10;99.90;;;;;;5017237;28;20635;-68
2021/10/11 01:17:39;;;;;;;42.80;31.70;;;11.10;99.90;;;;;;5018833;28;20185;-66
2021/10/11 01:20:08;;;;;;;48.60;34.73;;;11.10;99.90;;;;;;5017167;28;20609;-66
2021/10/11 01:22:36;;;;;;;46.43;34.70;;;11.20;99.90;;;;;;5017683;28;20188;-66
2021/10/11 01:25:06;;;;;;;48.97;35.47;;;11.20;99.90;;;;;;5017901;28;20674;-67
2021/10/11 01:27:34;;;;;;;46.33;35.40;;;11.20;99.90;;;;;;5016796;28;20719;-67
2021/10/11 01:30:00;;;;;;;42.97;33.70;;;11.20;99.90;;;;;;5017571;28;20639;-66
2021/10/11 01:32:29;;;;;;;45.53;34.00;;;11.20;99.90;;;;;;5018837;28;21005;-66
2021/10/11 01:34:57;;;;;;;45.97;35.47;;;11.20;99.90;;;;;;5016487;28;20687;-66
2021/10/11 01:37:23;;;;;;;48.67;34.40;;;11.20;99.90;;;;;;5016600;28;20710;-67
2021/10/11 01:39:51;;;;;;;46.37;34.80;;;11.20;99.90;;;;;;5017342;28;20607;-66
2021/10/11 01:42:16;;;;;;;46.50;34.40;;;11.20;99.90;;;;;;5017539;28;20225;-67
2021/10/11 01:44:42;;;;;;;47.63;34.83;;;11.20;99.90;;;;;;5017221;28;20632;-67
2021/10/11 01:47:21;;;;;;;45.60;34.10;;;11.20;99.90;;;;;;5016114;28;20188;-64
2021/10/11 01:49:46;;;;;;;45.80;34.10;;;11.20;99.90;;;;;;5017551;28;20601;-66
2021/10/11 01:52:14;;;;;;;48.27;35.20;;;11.20;99.90;;;;;;5016830;28;21114;-65
2021/10/11 01:54:47;;;;;;;42.90;31.50;;;11.30;99.90;;;;;;5016252;28;20220;-66
2021/10/11 01:57:13;;;;;;;43.77;32.77;;;11.30;99.90;;;;;;5016878;28;20679;-66
2021/10/11 01:59:39;;;;;;;46.40;33.90;;;11.30;99.90;;;;;;5018027;28;20706;-65
2021/10/11 02:02:07;;;;;;;42.60;31.90;;;11.30;99.90;;;;;;5015919;28;20215;-66
2021/10/11 02:04:35;;;;;;;43.83;32.67;;;11.30;99.90;;;;;;5016605;28;20221;-66
2021/10/11 02:07:04;;;;;;;43.43;33.10;;;11.30;99.90;;;;;;5016950;28;21253;-68
2021/10/11 02:09:30;;;;;;;41.23;33.20;;;11.30;99.90;;;;;;5017108;28;20608;-67
2021/10/11 02:11:55;;;;;;;46.07;34.73;;;11.30;99.90;;;;;;5014534;28;21050;-66
2021/10/11 02:14:21;;;;;;;46.47;32.20;;;11.30;99.90;;;;;;5016371;28;20654;-67
2021/10/11 02:16:47;;;;;;;39.83;31.20;;;11.30;99.90;;;;;;5020689;28;20190;-67
2021/10/11 02:19:12;;;;;;;43.83;32.50;;;11.30;99.90;;;;;;5020811;28;20193;-67
2021/10/11 02:21:38;;;;;;;39.43;30.33;;;11.30;99.90;;;;;;5020470;28;20288;-66
2021/10/11 02:24:04;;;;;;;45.80;33.40;;;11.40;99.90;;;;;;5020434;28;20646;-67
2021/10/11 02:26:29;;;;;;;45.63;33.27;;;11.40;99.90;;;;;;5027222;28;20622;-67
2021/10/11 02:28:55;;;;;;;43.93;33.67;;;11.40;99.90;;;;;;5020149;28;20741;-66
2021/10/11 02:31:20;;;;;;;40.43;31.87;;;11.40;99.90;;;;;;5020732;28;20591;-66
2021/10/11 02:33:50;;;;;;;43.63;32.60;;;11.40;99.90;;;;;;5019619;28;20232;-67
2021/10/11 02:36:16;;;;;;;47.47;32.33;;;11.30;99.90;;;;;;5020525;28;20189;-68
2021/10/11 02:38:44;;;;;;;45.40;32.30;;;11.40;99.90;;;;;;5019869;28;20635;-67
2021/10/11 02:41:09;;;;;;;46.90;32.23;;;11.30;99.90;;;;;;5020700;28;20739;-66
2021/10/11 02:43:40;;;;;;;43.73;33.13;;;11.30;99.90;;;;;;5020775;28;20722;-67
2021/10/11 02:46:06;;;;;;;44.63;32.03;;;11.30;99.90;;;;;;5019480;28;20199;-66
2021/10/11 02:48:31;;;;;;;40.47;31.37;;;11.30;99.90;;;;;;5019783;28;20684;-66
2021/10/11 02:51:00;;;;;;;40.07;30.07;;;11.30;99.90;;;;;;5026467;28;20218;-66
2021/10/11 02:53:28;;;;;;;46.70;31.33;;;11.30;99.90;;;;;;5020837;28;20280;-66
2021/10/11 02:55:56;;;;;;;43.43;31.60;;;11.30;99.90;;;;;;5018882;28;20620;-66
2021/10/11 02:58:22;;;;;;;45.83;33.43;;;11.30;99.90;;;;;;5020566;28;20614;-66
2021/10/11 03:00:48;;;;;;;43.27;31.70;;;11.30;99.90;;;;;;5024962;28;20681;-66
2021/10/11 03:03:13;;;;;;;43.63;32.50;;;11.30;99.90;;;;;;5017990;28;20643;-68
2021/10/11 03:05:46;;;;;;;43.13;30.50;;;11.30;99.90;;;;;;5020533;28;20189;-67
2021/10/11 03:08:14;;;;;;;38.83;29.93;;;11.30;99.90;;;;;;5025864;28;20308;-66
2021/10/11 03:10:40;;;;;;;40.10;29.47;;;11.30;99.90;;;;;;5020844;28;20669;-67
2021/10/11 03:13:05;;;;;;;40.27;29.53;;;11.30;99.90;;;;;;5014594;28;20636;-67
2021/10/11 03:15:31;;;;;;;41.60;30.10;;;11.40;99.90;;;;;;5020069;28;20528;-66
2021/10/11 03:18:02;;;;;;;38.43;30.03;;;11.30;99.90;;;;;;5019247;28;20193;-65
2021/10/11 03:20:28;;;;;;;41.57;29.03;;;11.30;99.90;;;;;;5020650;28;20648;-65
2021/10/11 03:22:58;;;;;;;39.07;28.63;;;11.30;99.90;;;;;;5018918;28;20610;-67
2021/10/11 03:25:24;;;;;;;40.10;28.50;;;11.20;99.90;;;;;;5019140;28;20229;-67
2021/10/11 03:27:49;;;;;;;38.27;27.23;;;11.20;99.90;;;;;;5018643;28;20604;-66
2021/10/11 03:30:15;;;;;;;40.00;28.53;;;11.20;99.90;;;;;;5018814;28;20208;-66
2021/10/11 03:32:40;;;;;;;39.33;29.20;;;11.20;99.90;;;;;;5020011;28;20227;-66
2021/10/11 03:35:06;;;;;;;35.33;27.70;;;11.20;99.90;;;;;;5018370;28;20225;-67
2021/10/11 03:37:36;;;;;;;37.23;27.57;;;11.20;99.90;;;;;;5020312;28;20553;-67
2021/10/11 03:40:05;;;;;;;41.83;30.10;;;11.20;99.90;;;;;;5019170;28;21118;-66
2021/10/11 03:42:31;;;;;;;34.90;26.00;;;11.20;99.90;;;;;;5020098;28;20714;-67
2021/10/11 03:44:56;;;;;;;35.43;27.30;;;11.20;99.90;;;;;;5019654;28;20766;-65
2021/10/11 03:47:22;;;;;;;39.30;27.23;;;11.20;99.90;;;;;;5019895;28;20184;-67
2021/10/11 03:49:50;;;;;;;37.73;27.60;;;11.20;99.90;;;;;;5018422;28;20605;-68
2021/10/11 03:52:15;;;;;;;36.70;28.00;;;11.20;99.90;;;;;;5019330;28;20205;-66
2021/10/11 03:54:41;;;;;;;35.33;26.77;;;11.10;99.90;;;;;;5017288;28;20660;-67
2021/10/11 03:57:06;;;;;;;34.53;26.47;;;11.00;99.90;;;;;;5020098;28;20715;-67
2021/10/11 03:59:32;;;;;;;35.87;25.33;;;11.10;99.90;;;;;;5018677;28;20185;-66
2021/10/11 04:01:58;;;;;;;36.43;26.43;;;11.10;99.90;;;;;;5018453;28;20256;-67
2021/10/11 04:04:23;;;;;;;36.70;27.27;;;11.10;99.90;;;;;;5019038;28;20231;-66
2021/10/11 04:06:50;;;;;;;31.60;25.20;;;11.10;99.90;;;;;;5019295;28;20185;-67
2021/10/11 04:09:16;;;;;;;39.30;28.07;;;11.10;99.90;;;;;;5017666;28;20737;-68
2021/10/11 04:11:42;;;;;;;37.60;28.40;;;11.10;99.90;;;;;;5019626;28;20734;-67
2021/10/11 04:14:07;;;;;;;36.97;24.83;;;11.10;99.90;;;;;;5015977;28;20229;-66
2021/10/11 04:16:33;;;;;;;34.13;26.47;;;11.00;99.90;;;;;;5018645;28;20227;-66
2021/10/11 04:18:58;;;;;;;39.33;26.00;;;11.00;99.90;;;;;;5018592;28;20216;-67
2021/10/11 04:21:24;;;;;;;36.10;26.83;;;11.00;99.90;;;;;;5017275;28;20233;-68
2021/10/11 04:23:52;;;;;;;38.23;27.40;;;11.00;99.90;;;;;;5018375;28;20228;-66
2021/10/11 04:26:18;;;;;;;34.27;26.47;;;11.00;99.90;;;;;;5017924;28;20190;-67
2021/10/11 04:28:45;;;;;;;31.73;24.97;;;11.00;99.90;;;;;;5019778;28;20607;-65
2021/10/11 04:31:13;;;;;;;36.50;25.67;;;11.00;99.90;;;;;;5017775;28;20200;-66
2021/10/11 04:33:39;;;;;;;31.93;24.77;;;11.00;99.90;;;;;;5020624;28;20654;-65
2021/10/11 04:36:05;;;;;;;34.03;24.93;;;11.10;99.90;;;;;;5019989;28;20616;-66
2021/10/11 04:38:33;;;;;;;36.10;25.47;;;11.00;99.90;;;;;;5018889;28;20542;-66
2021/10/11 04:40:58;;;;;;;31.03;24.30;;;11.00;99.90;;;;;;5020590;28;20674;-66
2021/10/11 04:43:24;;;;;;;36.17;27.27;;;11.00;99.90;;;;;;5019549;28;21118;-65
2021/10/11 04:45:49;;;;;;;34.53;26.80;;;11.00;99.90;;;;;;5020590;28;20212;-66
2021/10/11 04:48:15;;;;;;;34.50;26.40;;;11.00;99.90;;;;;;5021357;28;20196;-67
2021/10/11 04:50:40;;;;;;;37.43;27.00;;;11.10;99.90;;;;;;5019112;28;20292;-65
2021/10/11 04:53:08;;;;;;;35.60;25.37;;;11.10;99.90;;;;;;5019153;28;20205;-65
2021/10/11 04:55:43;;;;;;;37.93;27.63;;;11.10;99.90;;;;;;5019306;28;20192;-65
2021/10/11 04:58:09;;;;;;;34.10;26.00;;;11.20;99.90;;;;;;5017923;28;20762;-66
2021/10/11 05:00:36;;;;;;;37.67;24.37;;;11.20;99.90;;;;;;5019988;28;20732;-65
2021/10/11 05:03:02;;;;;;;30.17;23.03;;;11.10;99.90;;;;;;5017692;28;20193;-67
2021/10/11 05:05:28;;;;;;;31.40;23.23;;;11.20;99.90;;;;;;5020043;28;20730;-66
2021/10/11 05:07:56;;;;;;;34.50;23.37;;;11.30;99.90;;;;;;5021158;28;20260;-68
2021/10/11 05:10:22;;;;;;;27.83;21.10;;;11.30;99.90;;;;;;5020689;28;20193;-67
2021/10/11 05:12:47;;;;;;;32.10;21.60;;;11.30;99.90;;;;;;5020205;28;20643;-68
2021/10/11 05:15:15;;;;;;;25.53;20.03;;;11.40;99.90;;;;;;5015515;28;20225;-66
2021/10/11 05:17:41;;;;;;;27.00;19.60;;;11.40;99.90;;;;;;5018795;28;20722;-66
2021/10/11 05:20:10;;;;;;;26.90;19.10;;;11.40;99.90;;;;;;5020696;28;20662;-66
2021/10/11 05:22:37;;;;;;;28.60;19.30;;;11.40;99.90;;;;;;5017573;28;20201;-66
2021/10/11 05:25:04;;;;;;;30.30;20.30;;;11.50;99.90;;;;;;5018241;28;20641;-66
2021/10/11 05:27:31;;;;;;;26.83;19.73;;;11.50;99.90;;;;;;5020250;28;20623;-67
2021/10/11 05:30:00;;;;;;;28.83;19.20;;;11.50;99.90;;;;;;5017953;28;20623;-66
2021/10/11 05:32:28;;;;;;;28.90;18.10;;;11.50;99.90;;;;;;5020536;28;20639;-67
2021/10/11 05:34:56;;;;;;;24.20;16.80;;;11.50;99.90;;;;;;5019412;28;20655;-65
2021/10/11 05:37:21;;;;;;;28.17;18.70;;;11.50;99.90;;;;;;5018814;28;20802;-65
2021/10/11 05:39:47;;;;;;;28.80;19.70;;;11.50;99.90;;;;;;5020172;28;21107;-66
2021/10/11 05:42:15;;;;;;;25.10;17.77;;;11.50;99.90;;;;;;5018958;28;20292;-66
2021/10/11 05:44:41;;;;;;;27.73;19.23;;;11.50;99.90;;;;;;5020341;28;20370;-66
2021/10/11 05:47:07;;;;;;;26.97;18.23;;;11.50;99.90;;;;;;5019251;28;21102;-67
2021/10/11 05:49:32;;;;;;;24.40;18.17;;;11.50;99.90;;;;;;5018048;28;20196;-67
2021/10/11 05:52:03;;;;;;;23.17;15.80;;;11.50;99.90;;;;;;5019807;28;20260;-66
2021/10/11 05:54:31;;;;;;;21.40;16.97;;;11.50;99.90;;;;;;5019250;28;20723;-67
2021/10/11 05:56:57;;;;;;;26.10;17.03;;;11.40;99.90;;;;;;5019727;28;20615;-67
2021/10/11 05:59:23;;;;;;;22.77;16.43;;;11.40;99.90;;;;;;5020697;28;20642;-67
2021/10/11 06:01:53;;;;;;;24.10;16.73;;;11.40;99.90;;;;;;5018709;28;20331;-67
2021/10/11 06:04:19;;;;;;;23.70;17.00;;;11.40;99.90;;;;;;5019010;28;20646;-66
2021/10/11 06:06:47;;;;;;;21.60;16.90;;;11.30;99.90;;;;;;5024417;28;20608;-65
2021/10/11 06:09:13;;;;;;;24.90;17.10;;;11.30;99.90;;;;;;5020006;28;20189;-66
2021/10/11 06:11:39;;;;;;;23.80;16.73;;;11.30;99.90;;;;;;5018856;28;21029;-66
2021/10/11 06:14:05;;;;;;;21.17;15.90;;;11.30;99.90;;;;;;5018973;28;20236;-67
2021/10/11 06:16:33;;;;;;;21.50;16.90;;;11.20;99.90;;;;;;5023362;28;20706;-66
2021/10/11 06:18:58;;;;;;;17.80;14.87;;;11.20;99.90;;;;;;5019500;28;20695;-67
2021/10/11 06:21:24;;;;;;;20.70;15.10;;;11.20;99.90;;;;;;5019007;28;20754;-66
2021/10/11 06:23:51;;;;;;;24.50;17.00;;;11.20;99.90;;;;;;5018761;28;20359;-66
2021/10/11 06:26:19;;;;;;;20.77;16.27;;;11.20;99.90;;;;;;5017914;28;20220;-67
2021/10/11 06:28:45;;;;;;;21.00;15.17;;;11.20;99.90;;;;;;5018264;28;20631;-66
2021/10/11 06:31:13;;;;;;;20.67;15.33;;;11.20;99.90;;;;;;5019566;28;20647;-66
2021/10/11 06:33:38;;;;;;;23.07;17.00;;;11.20;99.90;;;;;;5017951;28;20319;-66
2021/10/11 06:36:06;;;;;;;24.00;16.93;;;11.20;99.90;;;;;;5019151;28;20702;-66
2021/10/11 06:38:39;;;;;;;24.70;17.77;;;11.20;99.90;;;;;;5020436;28;20259;-66
2021/10/11 06:41:10;;;;;;;27.67;19.10;;;11.20;99.90;;;;;;5018587;28;20642;-65
2021/10/11 06:43:36;;;;;;;30.73;19.53;;;11.20;99.90;;;;;;5017843;28;20650;-66
2021/10/11 06:46:01;;;;;;;26.87;19.87;;;11.20;99.90;;;;;;5018381;28;21218;-67
2021/10/11 06:48:34;;;;;;;29.70;20.80;;;11.20;99.90;;;;;;5018050;28;20577;-67
2021/10/11 06:51:00;;;;;;;28.50;21.07;;;11.30;99.90;;;;;;5019581;28;20236;-66
2021/10/11 06:53:26;;;;;;;27.67;20.33;;;11.30;99.90;;;;;;5017968;28;20632;-66
2021/10/11 06:55:51;;;;;;;31.67;22.10;;;11.40;99.90;;;;;;5018673;28;20189;-64
2021/10/11 06:58:19;;;;;;;30.17;22.60;;;11.40;99.90;;;;;;5018106;28;20325;-66
2021/10/11 07:00:45;;;;;;;32.33;21.70;;;11.40;99.90;;;;;;5018183;28;20220;-66
2021/10/11 07:03:10;;;;;;;33.73;23.20;;;11.50;99.90;;;;;;5021075;28;20687;-66
2021/10/11 07:05:38;;;;;;;33.10;22.70;;;11.50;99.90;;;;;;5022630;28;20571;-66
2021/10/11 07:08:09;;;;;;;31.83;20.73;;;11.50;99.90;;;;;;5022101;28;20197;-67
2021/10/11 07:10:38;;;;;;;27.87;20.67;;;11.60;99.90;;;;;;5029504;28;21048;-66
2021/10/11 07:13:04;;;;;;;29.53;21.50;;;11.70;99.90;;;;;;5021167;28;20639;-65
2021/10/11 07:15:30;;;;;;;30.50;21.93;;;11.70;99.90;;;;;;5022592;28;20607;-66
2021/10/11 07:17:56;;;;;;;26.23;19.37;;;11.70;99.90;;;;;;5018582;28;20607;-66
2021/10/11 07:20:22;;;;;;;29.40;21.43;;;11.70;99.90;;;;;;5022823;28;20213;-65
2021/10/11 07:22:48;;;;;;;27.53;20.50;;;11.70;99.90;;;;;;5023409;28;20588;-66
2021/10/11 07:25:13;;;;;;;31.47;20.50;;;11.70;99.90;;;;;;5026397;28;20670;-65
2021/10/11 07:27:39;;;;;;;26.40;18.90;;;11.80;99.90;;;;;;5022484;28;20208;-66
2021/10/11 07:30:05;;;;;;;27.33;19.27;;;11.80;99.90;;;;;;5023607;28;20272;-65
2021/10/11 07:32:33;;;;;;;24.33;17.23;;;11.90;99.90;;;;;;5019552;28;20208;-65
2021/10/11 07:34:59;;;;;;;28.23;17.70;;;11.90;99.90;;;;;;5020763;28;20710;-66
2021/10/11 07:37:28;;;;;;;26.83;19.00;;;12.00;99.90;;;;;;5023078;28;21132;-65
2021/10/11 07:40:00;;;;;;;26.67;18.40;;;12.00;99.90;;;;;;5022117;28;20612;-65
2021/10/11 07:42:26;;;;;;;25.37;16.70;;;12.10;99.90;;;;;;5021572;28;20658;-66
2021/10/11 07:44:51;;;;;;;25.30;17.30;;;12.20;99.90;;;;;;5020464;28;20643;-65
2021/10/11 07:47:17;;;;;;;21.20;15.80;;;12.20;99.90;;;;;;5022563;28;20315;-66
2021/10/11 07:49:45;;;;;;;19.43;15.70;;;12.30;99.90;;;;;;5021809;28;20231;-66
2021/10/11 07:52:13;;;;;;;20.50;15.30;;;12.20;99.90;;;;;;5022959;28;20289;-67
2021/10/11 07:54:38;;;;;;;15.60;12.57;;;12.30;99.90;;;;;;5020152;28;21233;-66
2021/10/11 07:57:04;;;;;;;20.90;13.93;;;12.30;99.90;;;;;;5027124;28;20718;-65
2021/10/11 07:59:30;;;;;;;15.33;11.90;;;12.40;99.90;;;;;;5021538;28;20247;-65
2021/10/11 08:01:58;;;;;;;16.27;12.73;;;12.40;99.90;;;;;;5021078;28;20236;-66
2021/10/11 08:04:24;;;;;;;16.77;12.90;;;12.50;99.90;;;;;;5020490;28;20255;-66
2021/10/11 08:06:50;;;;;;;16.67;10.90;;;12.50;99.90;;;;;;5020869;28;20706;-66
2021/10/11 08:09:15;;;;;;;15.30;10.83;;;12.60;99.90;;;;;;5021225;28;20275;-67
2021/10/11 08:11:43;;;;;;;15.10;10.17;;;12.70;99.90;;;;;;5020250;28;20224;-67
2021/10/11 08:14:08;;;;;;;11.90;8.93;;;12.70;99.90;;;;;;5020956;28;20335;-65
2021/10/11 08:16:34;;;;;;;16.23;8.37;;;12.80;99.90;;;;;;5022509;28;20746;-66
2021/10/11 08:19:00;;;;;;;11.83;7.47;;;12.80;99.90;;;;;;5017749;28;20200;-66
2021/10/11 08:21:25;;;;;;;10.57;7.03;;;12.90;99.90;;;;;;5021958;28;20212;-66
2021/10/11 08:23:53;;;;;;;12.57;7.50;;;12.90;99.90;;;;;;5025303;28;20228;-67
2021/10/11 08:26:20;;;;;;;8.60;6.13;;;13.00;99.90;;;;;;5026487;28;20399;-67
2021/10/11 08:28:46;;;;;;;9.47;5.70;;;13.00;99.90;;;;;;5021019;28;20714;-67
2021/10/11 08:31:12;;;;;;;9.07;5.70;;;13.10;99.90;;;;;;5021727;28;20730;-67
2021/10/11 08:33:38;;;;;;;9.57;5.17;;;13.10;99.90;;;;;;5026998;28;20731;-68
2021/10/11 08:36:04;;;;;;;7.53;5.00;;;13.20;99.90;;;;;;5021172;28;20639;-66
2021/10/11 08:38:30;;;;;;;7.87;4.57;;;13.30;99.90;;;;;;5019701;28;20735;-66
2021/10/11 08:40:56;;;;;;;8.40;4.40;;;13.40;99.90;;;;;;5022154;28;20669;-67
2021/10/11 08:43:22;;;;;;;7.10;3.87;;;13.60;99.90;;;;;;5019666;28;20700;-67
2021/10/11 08:45:52;;;;;;;13.30;4.20;;;13.70;99.90;;;;;;5020304;28;20626;-66
2021/10/11 08:48:20;;;;;;;5.07;3.40;;;13.70;99.90;;;;;;5021139;28;20704;-67
2021/10/11 08:50:46;;;;;;;6.67;3.77;;;13.80;99.90;;;;;;5021831;28;21017;-67
2021/10/11 08:53:14;;;;;;;6.30;3.60;;;13.90;99.90;;;;;;5019402;28;20639;-67
2021/10/11 08:55:39;;;;;;;5.90;3.20;;;13.90;99.90;;;;;;5020911;28;20189;-66
2021/10/11 08:58:08;;;;;;;6.63;3.50;;;14.00;99.90;;;;;;5019802;28;21210;-66
2021/10/11 09:00:36;;;;;;;7.00;3.40;;;14.00;99.90;;;;;;5020285;28;20205;-67
2021/10/11 09:03:02;;;;;;;12.23;3.27;;;14.10;99.90;;;;;;5019230;28;20622;-66
2021/10/11 09:05:53;;;;;;;5.33;3.00;;;14.10;99.90;;;;;;5020975;28;21201;-65
2021/10/11 09:08:19;;;;;;;6.20;3.00;;;14.20;99.90;;;;;;5022206;28;20627;-65
2021/10/11 09:10:55;;;;;;;8.50;3.53;;;14.20;99.90;;;;;;5019780;28;20730;-65
2021/10/11 09:13:28;;;;;;;5.60;3.53;;;14.10;99.90;;;;;;5019616;28;20231;-67
2021/10/11 09:16:29;;;;;;;8.53;2.90;;;14.20;99.90;;;;;;5020875;28;20605;-65
2021/10/11 09:18:59;;;;;;;6.57;3.07;;;14.20;99.90;;;;;;5018466;28;21482;-67
2021/10/11 09:21:32;;;;;;;5.50;2.87;;;14.30;99.90;;;;;;5020423;28;20732;-66
2021/10/11 09:24:20;;;;;;;7.90;2.70;;;14.30;99.90;;;;;;5019496;28;20636;-65
2021/10/11 09:26:52;;;;;;;4.87;2.27;;;14.40;99.90;;;;;;5018508;28;20671;-65
2021/10/11 09:29:35;;;;;;;8.87;2.80;;;14.40;99.90;;;;;;5019886;28;21034;-65
2021/10/11 09:32:04;;;;;;;5.33;2.67;;;14.40;99.90;;;;;;5018866;28;20643;-64
2021/10/11 09:34:32;;;;;;;6.33;2.40;;;14.40;99.90;;;;;;5018572;28;20685;-65
2021/10/11 09:37:06;;;;;;;8.07;2.67;;;14.40;99.90;;;;;;5019980;28;20699;-68
2021/10/11 09:39:34;;;;;;;3.20;2.30;;;14.50;99.90;;;;;;5021031;28;20611;-65
2021/10/11 09:42:01;;;;;;;6.10;2.10;;;14.50;99.90;;;;;;5019692;28;20680;-65
2021/10/11 09:44:27;;;;;;;6.57;2.27;;;14.60;99.90;;;;;;5019948;28;21218;-65
2021/10/11 09:46:57;;;;;;;3.57;1.70;;;14.70;99.90;;;;;;5018409;28;20636;-65
2021/10/11 09:49:26;;;;;;;6.10;2.00;;;14.70;99.90;;;;;;5020283;28;20807;-67
2021/10/11 09:51:56;;;;;;;4.40;1.90;;;14.80;99.90;;;;;;5020684;28;20650;-66
2021/10/11 09:54:22;;;;;;;3.47;1.90;;;14.90;99.90;;;;;;5018557;28;20640;-66
2021/10/11 09:56:49;;;;;;;6.97;3.57;;;14.90;99.90;;;;;;5019647;28;20717;-66
2021/10/11 09:59:17;;;;;;;4.83;2.27;;;15.00;99.90;;;;;;5020509;28;20607;-66
2021/10/11 10:01:47;;;;;;;5.47;1.60;;;15.20;99.90;;;;;;5017633;28;20639;-65
2021/10/11 10:04:20;;;;;;;4.03;1.73;;;15.20;99.90;;;;;;5018960;28;20636;-65
2021/10/11 10:06:47;;;;;;;4.37;1.50;;;15.30;99.90;;;;;;5018281;28;20686;-66
2021/10/11 10:09:15;;;;;;;5.50;2.43;;;15.40;99.90;;;;;;5020142;28;20603;-65
2021/10/11 10:11:41;;;;;;;6.53;2.00;;;15.50;99.90;;;;;;5019889;28;20638;-65
2021/10/11 10:14:21;;;;;;;5.97;1.77;;;15.50;99.90;;;;;;5018370;28;20643;-67
2021/10/11 10:16:50;;;;;;;5.00;2.00;;;15.60;99.90;;;;;;5020574;28;20187;-66
2021/10/11 10:19:16;;;;;;;4.17;1.83;;;15.60;99.90;;;;;;5018857;28;20692;-65
2021/10/11 10:21:41;;;;;;;3.40;1.87;;;15.70;99.90;;;;;;5017045;28;20686;-66
2021/10/11 10:24:07;;;;;;;5.60;1.63;;;15.80;99.90;;;;;;5018003;28;20233;-66
2021/10/11 10:26:43;;;;;;;3.60;1.60;;;15.80;99.90;;;;;;5019502;28;20186;-65
2021/10/11 10:29:25;;;;;;;7.33;1.73;;;15.90;99.90;;;;;;5018747;28;20665;-65
2021/10/11 10:31:53;;;;;;;4.70;1.80;;;15.90;99.90;;;;;;5020500;28;20646;-66
2021/10/11 10:34:32;;;;;;;3.67;2.00;;;16.00;99.90;;;;;;5024522;28;20647;-65
2021/10/11 10:37:08;;;;;;;5.30;1.60;;;16.00;99.90;;;;;;5022015;28;20606;-68
2021/10/11 10:39:43;;;;;;;3.80;1.90;;;16.00;99.90;;;;;;5023144;28;20622;-66
2021/10/11 10:42:27;;;;;;;3.13;1.47;;;16.00;99.90;;;;;;5022215;28;21130;-66
2021/10/11 10:44:56;;;;;;;3.50;1.63;;;15.90;99.90;;;;;;5022589;28;21215;-66
2021/10/11 10:47:34;;;;;;;6.47;1.93;;;15.80;99.90;;;;;;5022871;28;20611;-66
2021/10/11 10:50:00;;;;;;;4.53;1.60;;;15.80;99.90;;;;;;5022859;28;20620;-66
2021/10/11 10:52:26;;;;;;;6.10;1.70;;;15.80;99.90;;;;;;5024068;28;20722;-66
2021/10/11 10:54:55;;;;;;;4.80;1.47;;;15.70;99.90;;;;;;5023127;28;20735;-66
2021/10/11 10:57:26;;;;;;;3.30;1.40;;;15.60;99.90;;;;;;5020950;28;20190;-67
2021/10/11 10:59:56;;;;;;;2.73;1.30;;;15.50;99.90;;;;;;5024290;28;20604;-66
2021/10/11 11:02:22;;;;;;;3.87;1.53;;;15.50;99.90;;;;;;5024051;28;21034;-65
2021/10/11 11:05:02;;;;;;;2.10;1.33;;;15.50;99.90;;;;;;5022424;28;20640;-66
2021/10/11 11:07:31;;;;;;;5.20;1.73;;;15.70;99.90;;;;;;5023524;28;20180;-66
2021/10/11 11:09:57;;;;;;;4.47;1.50;;;15.90;99.90;;;;;;5023904;28;20650;-67
2021/10/11 11:12:33;;;;;;;3.70;1.23;;;16.00;99.90;;;;;;5021428;28;20670;-67
2021/10/11 11:15:01;;;;;;;4.40;1.50;;;16.10;99.90;;;;;;5021912;28;20639;-66
2021/10/11 11:17:32;;;;;;;4.13;1.50;;;16.20;99.90;;;;;;5023449;28;20638;-66
2021/10/11 11:19:57;;;;;;;4.10;1.20;;;16.40;99.90;;;;;;5023390;28;20599;-66
2021/10/11 11:22:31;;;;;;;3.10;1.50;;;16.50;99.90;;;;;;5018719;28;20639;-67
2021/10/11 11:25:00;;;;;;;5.17;1.33;;;16.70;99.90;;;;;;5021696;28;20295;-66
2021/10/11 11:27:30;;;;;;;3.97;1.87;;;16.80;99.90;;;;;;5021228;28;20655;-65
2021/10/11 11:29:58;;;;;;;4.83;1.40;;;16.90;99.90;;;;;;5020956;28;21175;-66
2021/10/11 11:32:23;;;;;;;3.90;1.10;;;16.90;99.90;;;;;;5022443;28;20646;-67
2021/10/11 11:34:49;;;;;;;5.10;1.30;;;16.80;99.90;;;;;;5022086;28;21194;-67
2021/10/11 11:37:18;;;;;;;4.03;1.53;;;16.90;99.90;;;;;;5021202;28;20244;-68
2021/10/11 11:39:44;;;;;;;3.20;1.30;;;17.10;99.90;;;;;;5023360;28;20944;-67
2021/10/11 11:42:30;;;;;;;3.13;1.43;;;17.40;99.90;;;;;;5021732;28;20650;-68
2021/10/11 11:44:55;;;;;;;3.57;1.30;;;17.50;99.90;;;;;;5020460;28;20224;-68
2021/10/11 11:47:28;;;;;;;3.43;0.97;;;17.40;99.90;;;;;;5025912;28;21344;-67
2021/10/11 11:50:00;;;;;;;2.27;0.97;;;17.40;99.90;;;;;;5021761;28;20674;-67
2021/10/11 11:52:35;;;;;;;3.70;1.13;;;17.50;99.90;;;;;;5022958;28;20658;-68
2021/10/11 11:55:11;;;;;;;2.50;0.97;;;17.90;99.90;;;;;;5019109;28;20660;-67
2021/10/11 11:57:41;;;;;;;2.13;0.90;;;18.50;99.90;;;;;;5022268;28;20719;-66
2021/10/11 12:00:10;;;;;;;1.33;0.70;;;19.20;99.90;;;;;;5022405;28;20694;-67
2021/10/11 12:02:42;;;;;;;2.10;0.80;;;20.10;99.90;;;;;;5026690;28;20828;-68
2021/10/11 12:05:16;;;;;;;2.70;1.20;;;22.10;99.90;;;;;;5021316;28;20623;-67
2021/10/11 12:07:47;;;;;;;1.77;0.80;;;24.80;99.90;;;;;;5021592;28;20588;-67
2021/10/11 12:10:20;;;;;;;3.13;1.20;;;27.10;99.90;;;;;;5020382;28;20633;-67
2021/10/11 12:13:01;;;;;;;4.90;1.00;;;29.40;99.90;;;;;;5022057;28;20631;-68
2021/10/11 12:15:31;;;;;;;2.83;0.90;;;31.90;94.80;;;;;;5021607;28;20611;-68
2021/10/11 12:18:12;;;;;;;2.13;1.00;;;33.20;84.60;;;;;;5020467;28;20604;-68
2021/10/11 12:20:38;;;;;;;7.43;1.23;;;34.60;76.70;;;;;;5022298;28;20999;-68
2021/10/11 12:23:06;;;;;;;1.90;0.83;;;34.20;68.50;;;;;;5016590;28;20623;-67
2021/10/11 12:25:32;;;;;;;2.70;0.97;;;32.00;68.50;;;;;;5022322;28;20607;-67
2021/10/11 12:28:16;;;;;;;1.17;0.70;;;29.30;72.30;;;;;;5021265;28;20608;-67
2021/10/11 12:30:48;;;;;;;3.43;0.90;;;26.70;81.40;;;;;;5020081;28;20746;-68
2021/10/11 12:33:17;;;;;;;1.70;0.90;;;25.20;90.30;;;;;;5020212;28;20726;-67
2021/10/11 12:35:48;;;;;;;4.10;1.13;;;23.90;93.40;;;;;;5021681;28;20568;-67
2021/10/11 12:38:21;;;;;;;3.27;1.03;;;22.60;97.70;;;;;;5020243;28;20707;-68